sensor_id;sensor_type;location;lat;lon;timestamp;pressure;altitude;pressure_sealevel;temperature;humidity
7754;BME280;3921;42.266;23.122;2022-11-22T00:00:41;94612.38;;;6.90;73.22
7754;BME280;3921;42.266;23.122;2022-11-22T00:03:08;94565.22;;;6.43;71.61
7754;BME280;3921;42.266;23.122;2022-11-22T00:05:35;95131.53;;;10.09;72.67
7754;BME280;3921;42.266;23.122;2022-11-22T00:08:04;95011.66;;;9.51;73.34
7754;BME280;3921;42.266;23.122;2022-11-22T00:10:33;95026.72;;;9.49;73.34
7754;BME280;3921;42.266;23.122;2022-11-22T00:13:00;94628.19;;;6.94;73.07
7754;BME280;3921;42.266;23.122;2022-11-22T00:15:29;95022.69;;;9.33;74.25
7754;BME280;3921;42.266;23.122;2022-11-22T00:17:56;95129.06;;;10.06;73.75
7754;BME280;3921;42.266;23.122;2022-11-22T00:20:24;95027.75;;;9.27;73.09
7754;BME280;3921;42.266;23.122;2022-11-22T00:22:50;94752.72;;;7.55;72.64
7754;BME280;3921;42.266;23.122;2022-11-22T00:25:19;94818.28;;;8.03;72.51
7754;BME280;3921;42.266;23.122;2022-11-22T00:27:58;94619.88;;;6.86;71.80
7754;BME280;3921;42.266;23.122;2022-11-22T00:30:25;94816.56;;;8.08;72.19
7754;BME280;3921;42.266;23.122;2022-11-22T00:32:52;95159.03;;;10.20;73.02
7754;BME280;3921;42.266;23.122;2022-11-22T00:35:19;95093.47;;;9.64;72.20
7754;BME280;3921;42.266;23.122;2022-11-22T00:37:46;94849.75;;;8.35;72.05
7754;BME280;3921;42.266;23.122;2022-11-22T00:40:12;95068.41;;;9.61;71.46
7754;BME280;3921;42.266;23.122;2022-11-22T00:42:41;95061.09;;;9.37;72.13
7754;BME280;3921;42.266;23.122;2022-11-22T00:45:11;94881.34;;;8.54;71.35
7754;BME280;3921;42.266;23.122;2022-11-22T00:47:41;95001.84;;;9.29;71.92
7754;BME280;3921;42.266;23.122;2022-11-22T00:50:10;94841.50;;;8.22;72.32
7754;BME280;3921;42.266;23.122;2022-11-22T00:52:37;95132.28;;;10.17;71.37
7754;BME280;3921;42.266;23.122;2022-11-22T00:55:05;94828.16;;;8.21;70.95
7754;BME280;3921;42.266;23.122;2022-11-22T00:57:32;94982.88;;;8.93;71.18
7754;BME280;3921;42.266;23.122;2022-11-22T01:00:00;95127.47;;;9.99;71.68
7754;BME280;3921;42.266;23.122;2022-11-22T01:02:30;94738.66;;;7.39;71.89
7754;BME280;3921;42.266;23.122;2022-11-22T01:04:57;95098.44;;;9.70;71.52
7754;BME280;3921;42.266;23.122;2022-11-22T01:07:24;94928.13;;;8.46;71.93
7754;BME280;3921;42.266;23.122;2022-11-22T01:09:51;94933.84;;;8.66;71.75
7754;BME280;3921;42.266;23.122;2022-11-22T01:12:18;94722.19;;;7.03;71.31
7754;BME280;3921;42.266;23.122;2022-11-22T01:14:45;94620.91;;;6.48;71.63
7754;BME280;3921;42.266;23.122;2022-11-22T01:17:13;95069.63;;;9.11;72.14
7754;BME280;3921;42.266;23.122;2022-11-22T01:19:40;94910.75;;;8.18;72.11
7754;BME280;3921;42.266;23.122;2022-11-22T01:22:07;94834.25;;;7.82;72.58
7754;BME280;3921;42.266;23.122;2022-11-22T01:24:34;95184.59;;;9.66;73.32
7754;BME280;3921;42.266;23.122;2022-11-22T01:27:01;94920.75;;;8.20;72.27
7754;BME280;3921;42.266;23.122;2022-11-22T01:29:28;95055.63;;;8.83;73.10
7754;BME280;3921;42.266;23.122;2022-11-22T01:31:55;94831.84;;;7.62;72.38
7754;BME280;3921;42.266;23.122;2022-11-22T01:34:26;95035.66;;;8.73;72.49
7754;BME280;3921;42.266;23.122;2022-11-22T01:36:54;95137.97;;;9.41;73.09
7754;BME280;3921;42.266;23.122;2022-11-22T01:39:21;94702.34;;;6.71;73.12
7754;BME280;3921;42.266;23.122;2022-11-22T01:41:48;94673.28;;;6.51;73.19
7754;BME280;3921;42.266;23.122;2022-11-22T01:44:22;94847.72;;;7.58;73.62
7754;BME280;3921;42.266;23.122;2022-11-22T01:46:52;95187.19;;;9.54;73.67
7754;BME280;3921;42.266;23.122;2022-11-22T01:49:26;94684.94;;;6.52;73.14
7754;BME280;3921;42.266;23.122;2022-11-22T01:51:57;94564.56;;;5.68;72.99
7754;BME280;3921;42.266;23.122;2022-11-22T01:54:29;94586.16;;;6.02;72.04
7754;BME280;3921;42.266;23.122;2022-11-22T01:57:02;95089.06;;;8.74;73.72
7754;BME280;3921;42.266;23.122;2022-11-22T01:59:32;95023.22;;;8.54;73.91
7754;BME280;3921;42.266;23.122;2022-11-22T02:02:00;95158.88;;;9.34;73.38
7754;BME280;3921;42.266;23.122;2022-11-22T02:04:29;95109.00;;;8.94;72.53
7754;BME280;3921;42.266;23.122;2022-11-22T02:07:04;94695.81;;;6.27;73.15
7754;BME280;3921;42.266;23.122;2022-11-22T02:09:33;94741.50;;;6.55;73.04
7754;BME280;3921;42.266;23.122;2022-11-22T02:12:03;94623.56;;;5.81;72.95
7754;BME280;3921;42.266;23.122;2022-11-22T02:14:32;94671.69;;;6.29;73.45
7754;BME280;3921;42.266;23.122;2022-11-22T02:16:59;94703.28;;;6.33;73.85
7754;BME280;3921;42.266;23.122;2022-11-22T02:19:37;95024.09;;;8.49;73.83
7754;BME280;3921;42.266;23.122;2022-11-22T02:22:11;94928.41;;;7.94;75.45
7754;BME280;3921;42.266;23.122;2022-11-22T02:24:48;94565.38;;;5.73;74.68
7754;BME280;3921;42.266;23.122;2022-11-22T02:27:20;95020.00;;;8.24;74.90
7754;BME280;3921;42.266;23.122;2022-11-22T02:30:00;94805.50;;;6.85;74.59
7754;BME280;3921;42.266;23.122;2022-11-22T02:32:27;94674.22;;;6.06;75.03
7754;BME280;3921;42.266;23.122;2022-11-22T02:34:56;94910.25;;;7.49;75.88
7754;BME280;3921;42.266;23.122;2022-11-22T02:37:24;94561.31;;;5.40;76.31
7754;BME280;3921;42.266;23.122;2022-11-22T02:39:57;94976.72;;;8.02;76.06
7754;BME280;3921;42.266;23.122;2022-11-22T02:42:30;94901.88;;;7.61;75.83
7754;BME280;3921;42.266;23.122;2022-11-22T02:44:59;94892.78;;;7.46;75.91
7754;BME280;3921;42.266;23.122;2022-11-22T02:47:26;95146.63;;;8.89;75.67
7754;BME280;3921;42.266;23.122;2022-11-22T02:49:53;94872.72;;;7.58;75.42
7754;BME280;3921;42.266;23.122;2022-11-22T02:52:20;94871.09;;;7.48;75.50
7754;BME280;3921;42.266;23.122;2022-11-22T02:54:47;94505.72;;;5.16;75.26
7754;BME280;3921;42.266;23.122;2022-11-22T02:57:14;95031.72;;;8.20;74.90
7754;BME280;3921;42.266;23.122;2022-11-22T02:59:43;95114.00;;;8.94;74.22
7754;BME280;3921;42.266;23.122;2022-11-22T03:02:12;94916.00;;;7.71;74.00
7754;BME280;3921;42.266;23.122;2022-11-22T03:04:39;94921.81;;;7.73;73.80
7754;BME280;3921;42.266;23.122;2022-11-22T03:07:05;95088.97;;;8.91;73.11
7754;BME280;3921;42.266;23.122;2022-11-22T03:09:32;94828.69;;;7.21;72.94
7754;BME280;3921;42.266;23.122;2022-11-22T03:12:00;94902.75;;;7.43;73.23
7754;BME280;3921;42.266;23.122;2022-11-22T03:14:30;94771.47;;;6.46;72.63
7754;BME280;3921;42.266;23.122;2022-11-22T03:16:58;94602.00;;;5.52;72.86
7754;BME280;3921;42.266;23.122;2022-11-22T03:19:27;95034.28;;;8.04;72.38
7754;BME280;3921;42.266;23.122;2022-11-22T03:21:54;94641.84;;;5.43;71.92
7754;BME280;3921;42.266;23.122;2022-11-22T03:24:21;94587.84;;;4.96;71.79
7754;BME280;3921;42.266;23.122;2022-11-22T03:26:49;94920.34;;;6.92;72.40
7754;BME280;3921;42.266;23.122;2022-11-22T03:29:16;95015.16;;;7.73;71.92
7754;BME280;3921;42.266;23.122;2022-11-22T03:31:43;94902.00;;;7.23;71.70
7754;BME280;3921;42.266;23.122;2022-11-22T03:34:12;94895.34;;;7.17;72.05
7754;BME280;3921;42.266;23.122;2022-11-22T03:36:39;95104.22;;;8.46;71.85
7754;BME280;3921;42.266;23.122;2022-11-22T03:39:06;94523.97;;;4.89;72.06
7754;BME280;3921;42.266;23.122;2022-11-22T03:41:33;95069.34;;;7.88;72.53
7754;BME280;3921;42.266;23.122;2022-11-22T03:44:01;94602.81;;;5.05;72.28
7754;BME280;3921;42.266;23.122;2022-11-22T03:46:28;95125.09;;;8.33;72.34
7754;BME280;3921;42.266;23.122;2022-11-22T03:48:55;94753.16;;;5.78;73.02
7754;BME280;3921;42.266;23.122;2022-11-22T03:51:23;95097.69;;;7.78;73.45
7754;BME280;3921;42.266;23.122;2022-11-22T03:53:50;94590.28;;;4.75;73.17
7754;BME280;3921;42.266;23.122;2022-11-22T03:56:17;95036.91;;;7.42;73.22
7754;BME280;3921;42.266;23.122;2022-11-22T03:58:44;95022.75;;;7.31;73.31
7754;BME280;3921;42.266;23.122;2022-11-22T04:01:13;94770.59;;;5.73;73.07
7754;BME280;3921;42.266;23.122;2022-11-22T04:03:50;95043.56;;;7.36;73.13
7754;BME280;3921;42.266;23.122;2022-11-22T04:06:20;95053.56;;;7.19;73.49
7754;BME280;3921;42.266;23.122;2022-11-22T04:08:58;94961.13;;;6.50;74.01
7754;BME280;3921;42.266;23.122;2022-11-22T04:11:26;94941.19;;;6.65;73.33
7754;BME280;3921;42.266;23.122;2022-11-22T04:13:54;94837.09;;;5.90;73.13
7754;BME280;3921;42.266;23.122;2022-11-22T04:16:38;94733.06;;;5.04;73.37
7754;BME280;3921;42.266;23.122;2022-11-22T04:19:08;95204.41;;;8.05;73.24
7754;BME280;3921;42.266;23.122;2022-11-22T04:21:43;95192.72;;;8.07;72.99
7754;BME280;3921;42.266;23.122;2022-11-22T04:24:13;94981.94;;;6.60;72.75
7754;BME280;3921;42.266;23.122;2022-11-22T04:27:00;95215.25;;;7.99;73.11
7754;BME280;3921;42.266;23.122;2022-11-22T04:29:27;94772.19;;;5.30;72.93
7754;BME280;3921;42.266;23.122;2022-11-22T04:31:54;94986.09;;;6.76;73.15
7754;BME280;3921;42.266;23.122;2022-11-22T04:34:42;94711.47;;;4.91;72.42
7754;BME280;3921;42.266;23.122;2022-11-22T04:37:11;94719.03;;;5.17;72.11
7754;BME280;3921;42.266;23.122;2022-11-22T04:39:40;95109.38;;;7.47;72.46
7754;BME280;3921;42.266;23.122;2022-11-22T04:42:08;94948.63;;;6.33;72.73
7754;BME280;3921;42.266;23.122;2022-11-22T04:44:52;94848.72;;;5.78;72.89
7754;BME280;3921;42.266;23.122;2022-11-22T04:47:19;95127.69;;;7.31;73.62
7754;BME280;3921;42.266;23.122;2022-11-22T04:50:06;95008.56;;;6.82;74.06
7754;BME280;3921;42.266;23.122;2022-11-22T04:52:53;94731.41;;;5.00;74.68
7754;BME280;3921;42.266;23.122;2022-11-22T04:55:21;95025.22;;;6.88;74.59
7754;BME280;3921;42.266;23.122;2022-11-22T04:57:48;95144.38;;;7.30;74.62
7754;BME280;3921;42.266;23.122;2022-11-22T05:00:16;95046.06;;;6.84;74.22
7754;BME280;3921;42.266;23.122;2022-11-22T05:02:43;94907.03;;;6.20;74.16
7754;BME280;3921;42.266;23.122;2022-11-22T05:05:10;95009.41;;;6.81;74.42
7754;BME280;3921;42.266;23.122;2022-11-22T05:07:37;94766.41;;;5.34;74.39
7754;BME280;3921;42.266;23.122;2022-11-22T05:10:04;95200.25;;;7.86;74.77
7754;BME280;3921;42.266;23.122;2022-11-22T05:12:33;94999.41;;;6.71;75.20
7754;BME280;3921;42.266;23.122;2022-11-22T05:15:00;94633.31;;;4.37;74.58
7754;BME280;3921;42.266;23.122;2022-11-22T05:17:27;95112.72;;;7.43;74.96
7754;BME280;3921;42.266;23.122;2022-11-22T05:19:54;94809.59;;;5.45;74.50
7754;BME280;3921;42.266;23.122;2022-11-22T05:22:38;94896.16;;;5.95;75.16
7754;BME280;3921;42.266;23.122;2022-11-22T05:25:23;95226.09;;;8.03;76.01
7754;BME280;3921;42.266;23.122;2022-11-22T05:27:53;94940.25;;;6.19;75.83
7754;BME280;3921;42.266;23.122;2022-11-22T05:30:21;95181.88;;;7.78;75.68
7754;BME280;3921;42.266;23.122;2022-11-22T05:32:49;94960.28;;;6.39;75.94
7754;BME280;3921;42.266;23.122;2022-11-22T05:35:19;95121.03;;;7.37;75.80
7754;BME280;3921;42.266;23.122;2022-11-22T05:37:46;94730.47;;;4.74;76.75
7754;BME280;3921;42.266;23.122;2022-11-22T05:40:15;95004.38;;;6.45;75.55
7754;BME280;3921;42.266;23.122;2022-11-22T05:42:42;94698.97;;;4.80;75.25
7754;BME280;3921;42.266;23.122;2022-11-22T05:45:14;95149.38;;;7.35;75.61
7754;BME280;3921;42.266;23.122;2022-11-22T05:47:42;94862.00;;;5.73;75.59
7754;BME280;3921;42.266;23.122;2022-11-22T05:50:09;95083.50;;;6.93;76.06
7754;BME280;3921;42.266;23.122;2022-11-22T05:52:36;94897.75;;;5.81;75.97
7754;BME280;3921;42.266;23.122;2022-11-22T05:55:05;94757.13;;;5.04;76.76
7754;BME280;3921;42.266;23.122;2022-11-22T05:57:34;94701.50;;;4.88;76.71
7754;BME280;3921;42.266;23.122;2022-11-22T06:00:28;94728.13;;;5.14;77.37
7754;BME280;3921;42.266;23.122;2022-11-22T06:05:32;94954.44;;;6.46;77.20
7754;BME280;3921;42.266;23.122;2022-11-22T06:08:07;94736.44;;;5.16;76.01
7754;BME280;3921;42.266;23.122;2022-11-22T06:10:36;95241.91;;;8.23;75.85
7754;BME280;3921;42.266;23.122;2022-11-22T06:13:03;94752.19;;;5.10;75.64
7754;BME280;3921;42.266;23.122;2022-11-22T06:15:33;94749.66;;;4.98;76.17
7754;BME280;3921;42.266;23.122;2022-11-22T06:18:03;95070.22;;;6.94;76.20
7754;BME280;3921;42.266;23.122;2022-11-22T06:20:35;94804.53;;;5.22;76.61
7754;BME280;3921;42.266;23.122;2022-11-22T06:23:02;95064.38;;;7.01;76.34
7754;BME280;3921;42.266;23.122;2022-11-22T06:25:29;94809.44;;;5.04;76.15
7754;BME280;3921;42.266;23.122;2022-11-22T06:27:57;95172.69;;;7.43;76.83
7754;BME280;3921;42.266;23.122;2022-11-22T06:30:24;95191.06;;;7.57;76.42
7754;BME280;3921;42.266;23.122;2022-11-22T06:36:20;94677.16;;;4.21;76.53
7754;BME280;3921;42.266;23.122;2022-11-22T06:38:55;95059.38;;;6.77;76.56
7754;BME280;3921;42.266;23.122;2022-11-22T06:41:32;94751.25;;;4.77;76.05
7754;BME280;3921;42.266;23.122;2022-11-22T06:44:44;95031.88;;;6.72;76.40
7754;BME280;3921;42.266;23.122;2022-11-22T06:47:28;95188.56;;;7.71;77.05
7754;BME280;3921;42.266;23.122;2022-11-22T07:19:27;95122.69;;;7.83;77.03
7754;BME280;3921;42.266;23.122;2022-11-22T07:22:25;94886.25;;;6.33;77.03
7754;BME280;3921;42.266;23.122;2022-11-22T07:33:54;95108.50;;;7.95;76.16
7754;BME280;3921;42.266;23.122;2022-11-22T07:36:56;94620.22;;;5.02;75.77
7754;BME280;3921;42.266;23.122;2022-11-22T07:39:51;94712.44;;;5.53;74.58
7754;BME280;3921;42.266;23.122;2022-11-22T07:42:49;94908.72;;;6.69;74.54
7754;BME280;3921;42.266;23.122;2022-11-22T08:39:11;94861.09;;;7.48;72.64
7754;BME280;3921;42.266;23.122;2022-11-22T11:18:23;94641.63;;;8.70;75.11
7754;BME280;3921;42.266;23.122;2022-11-22T11:24:13;94847.22;;;9.98;75.66
7754;BME280;3921;42.266;23.122;2022-11-22T11:26:59;94404.03;;;7.19;76.14
7754;BME280;3921;42.266;23.122;2022-11-22T11:29:40;94581.22;;;8.23;75.67
7754;BME280;3921;42.266;23.122;2022-11-22T11:32:21;94444.50;;;7.52;75.88
7754;BME280;3921;42.266;23.122;2022-11-22T11:35:04;94604.47;;;8.38;76.17
7754;BME280;3921;42.266;23.122;2022-11-22T11:40:43;94921.66;;;10.60;76.70
7754;BME280;3921;42.266;23.122;2022-11-22T11:44:49;94900.88;;;10.49;76.71
7754;BME280;3921;42.266;23.122;2022-11-22T11:47:53;94318.50;;;6.97;76.27
7754;BME280;3921;42.266;23.122;2022-11-22T12:44:46;94475.38;;;8.18;83.43
7754;BME280;3921;42.266;23.122;2022-11-22T15:16:25;94106.09;;;7.08;78.75
7754;BME280;3921;42.266;23.122;2022-11-22T15:23:00;94220.16;;;7.69;77.79
7754;BME280;3921;42.266;23.122;2022-11-22T15:26:04;94483.59;;;9.39;77.47
7754;BME280;3921;42.266;23.122;2022-11-22T16:04:44;94140.94;;;7.17;78.00
7754;BME280;3921;42.266;23.122;2022-11-22T16:07:59;94187.16;;;7.45;75.17
7754;BME280;3921;42.266;23.122;2022-11-22T17:42:12;94370.28;;;9.23;71.94
7754;BME280;3921;42.266;23.122;2022-11-22T17:49:26;94631.91;;;10.63;73.30
7754;BME280;3921;42.266;23.122;2022-11-22T18:01:50;94192.13;;;8.50;74.82
7754;BME280;3921;42.266;23.122;2022-11-22T18:04:31;94030.44;;;7.52;74.68
7754;BME280;3921;42.266;23.122;2022-11-22T18:07:32;94239.41;;;8.64;74.70
7754;BME280;3921;42.266;23.122;2022-11-22T18:10:11;94049.63;;;7.50;74.32
7754;BME280;3921;42.266;23.122;2022-11-22T18:12:45;94210.38;;;8.54;74.05
7754;BME280;3921;42.266;23.122;2022-11-22T18:15:12;94514.72;;;10.62;75.37
7754;BME280;3921;42.266;23.122;2022-11-22T18:17:46;94547.28;;;10.65;74.06
7754;BME280;3921;42.266;23.122;2022-11-22T18:20:24;94197.84;;;8.56;73.58
7754;BME280;3921;42.266;23.122;2022-11-22T18:23:00;94286.16;;;9.09;72.33
7754;BME280;3921;42.266;23.122;2022-11-22T18:25:29;94114.53;;;8.04;72.50
7754;BME280;3921;42.266;23.122;2022-11-22T18:34:34;94055.28;;;7.61;72.22
7754;BME280;3921;42.266;23.122;2022-11-22T18:50:39;94014.78;;;7.89;74.27
7754;BME280;3921;42.266;23.122;2022-11-22T18:53:38;93891.56;;;7.40;74.39
7754;BME280;3921;42.266;23.122;2022-11-22T18:56:14;93964.16;;;7.78;74.86
7754;BME280;3921;42.266;23.122;2022-11-22T23:31:18;93912.31;;;7.44;90.05
7754;BME280;3921;42.266;23.122;2022-11-22T23:34:15;94023.47;;;8.14;90.63
